createdAt,value
2023-05-12T00:00:27.165Z,2.03
2023-05-12T00:02:54.999Z,2.58
2023-05-12T00:05:22.675Z,2.08
2023-05-12T00:07:50.530Z,2.40
2023-05-12T00:10:18.168Z,2.20
2023-05-12T00:12:45.756Z,2.42
2023-05-12T00:15:13.918Z,2.20
2023-05-12T00:17:41.544Z,2.47
2023-05-12T00:20:09.718Z,2.15
2023-05-12T00:22:37.316Z,2.33
2023-05-12T00:25:05.048Z,2.10
2023-05-12T00:27:33.109Z,2.40
2023-05-12T00:30:00.819Z,2.10
2023-05-12T00:32:28.281Z,3.00
2023-05-12T00:34:55.850Z,2.17
2023-05-12T00:37:23.327Z,2.55
2023-05-12T00:39:51.048Z,2.30
2023-05-12T00:42:18.402Z,2.20
2023-05-12T00:47:14.567Z,2.30
2023-05-12T00:49:42.797Z,2.30
2023-05-12T00:52:10.264Z,3.00
2023-05-12T00:54:40.219Z,3.00
2023-05-12T00:57:08.349Z,2.45
2023-05-12T00:59:36.171Z,2.70
2023-05-12T01:02:04.022Z,2.35
2023-05-12T01:04:32.995Z,2.70
2023-05-12T01:07:07.619Z,2.30
2023-05-12T01:09:35.451Z,2.50
2023-05-12T01:12:03.636Z,2.85
2023-05-12T01:14:32.576Z,2.80
2023-05-12T01:17:03.649Z,2.90
2023-05-12T01:19:50.880Z,3.05
2023-05-12T01:22:19.092Z,2.72
2023-05-12T01:24:54.223Z,2.78
2023-05-12T01:27:25.446Z,2.53
2023-05-12T01:29:56.218Z,3.17
2023-05-12T01:32:23.826Z,2.50
2023-05-12T01:34:52.722Z,2.90
2023-05-12T01:37:21.258Z,3.00
2023-05-12T01:39:48.924Z,2.88
2023-05-12T01:42:20.989Z,3.03
2023-05-12T01:44:49.220Z,2.60
2023-05-12T01:49:51.214Z,2.95
2023-05-12T01:52:19.264Z,2.90
2023-05-12T01:54:46.813Z,3.22
2023-05-12T01:57:14.941Z,3.40
2023-05-12T01:59:43.109Z,2.85
2023-05-12T02:02:12.496Z,3.08
2023-05-12T02:04:40.101Z,2.97
2023-05-12T02:07:07.641Z,2.85
2023-05-12T02:09:35.404Z,3.55
2023-05-12T02:12:04.384Z,3.20
2023-05-12T02:14:31.949Z,3.53
2023-05-12T02:16:59.416Z,3.00
2023-05-12T02:21:55.342Z,2.78
2023-05-12T02:24:22.754Z,3.00
2023-05-12T02:26:50.424Z,3.03
2023-05-12T02:31:46.221Z,3.20
2023-05-12T02:34:17.144Z,3.00
2023-05-12T02:36:44.695Z,3.92
2023-05-12T02:39:13.553Z,3.63
2023-05-12T02:41:41.510Z,3.83
2023-05-12T02:44:09.151Z,4.00
2023-05-12T02:46:37.398Z,4.65
2023-05-12T02:49:04.799Z,3.65
2023-05-12T02:51:32.483Z,3.67
2023-05-12T02:53:59.881Z,3.65
2023-05-12T02:58:54.632Z,3.10
2023-05-12T03:01:22.229Z,3.30
2023-05-12T03:03:49.774Z,3.33
2023-05-12T03:06:17.572Z,3.63
2023-05-12T03:08:44.978Z,3.72
2023-05-12T03:11:12.961Z,4.00
2023-05-12T03:13:40.601Z,3.67
2023-05-12T03:16:08.137Z,3.60
2023-05-12T03:18:35.610Z,3.60
2023-05-12T03:21:03.772Z,3.45
2023-05-12T03:23:31.539Z,3.80
2023-05-12T03:25:58.960Z,4.28
2023-05-12T03:28:27.588Z,3.90
2023-05-12T03:30:55.248Z,4.13
2023-05-12T03:33:24.190Z,3.85
2023-05-12T03:35:53.337Z,3.92
2023-05-12T03:38:20.731Z,3.80
2023-05-12T03:43:21.401Z,3.67
2023-05-12T03:45:49.469Z,4.15
2023-05-12T03:50:44.236Z,3.10
2023-05-12T03:55:39.381Z,3.92
2023-05-12T03:58:07.380Z,3.70
2023-05-12T04:00:35.191Z,3.90
2023-05-12T04:03:02.797Z,3.22
2023-05-12T04:05:30.378Z,3.60
2023-05-12T04:07:58.030Z,3.58
2023-05-12T04:10:25.407Z,3.28
2023-05-12T04:12:52.869Z,3.25
2023-05-12T04:15:21.297Z,3.10
2023-05-12T04:17:50.072Z,3.13
2023-05-12T04:20:18.987Z,3.75
2023-05-12T04:22:47.660Z,3.42
2023-05-12T04:25:15.233Z,3.53
2023-05-12T04:27:42.690Z,4.10
2023-05-12T04:32:39.432Z,3.95
2023-05-12T04:35:07.928Z,5.38
2023-05-12T04:37:36.337Z,4.43
2023-05-12T04:40:04.763Z,4.70
2023-05-12T04:42:32.305Z,5.05
2023-05-12T04:44:59.975Z,5.38
2023-05-12T04:47:28.013Z,5.32
2023-05-12T04:49:55.550Z,5.25
2023-05-12T04:52:24.628Z,5.18
2023-05-12T04:54:52.392Z,5.32
2023-05-12T04:57:19.798Z,5.40
2023-05-12T05:02:14.615Z,5.03
2023-05-12T05:04:42.293Z,5.50
2023-05-12T05:07:10.475Z,5.47
2023-05-12T05:09:37.888Z,4.88
2023-05-12T05:12:06.973Z,5.20
2023-05-12T05:14:34.664Z,4.57
2023-05-12T05:17:03.173Z,4.78
2023-05-12T05:22:03.494Z,7.07
2023-05-12T05:24:30.902Z,5.32
2023-05-12T05:26:59.770Z,4.85
2023-05-12T05:29:27.314Z,5.00
2023-05-12T05:31:55.018Z,5.03
2023-05-12T05:34:22.662Z,4.88
2023-05-12T05:36:50.254Z,4.75
2023-05-12T05:41:45.086Z,5.35
2023-05-12T05:46:40.062Z,5.43
2023-05-12T05:49:07.623Z,5.30
2023-05-12T05:51:35.097Z,6.90
2023-05-12T05:54:02.530Z,6.13
2023-05-12T05:56:30.631Z,5.32
2023-05-12T05:59:03.585Z,4.63
2023-05-12T06:01:34.203Z,4.93
2023-05-12T06:04:02.129Z,5.25
2023-05-12T06:06:29.607Z,5.30
2023-05-12T06:08:57.252Z,5.80
2023-05-12T06:11:24.885Z,6.03
2023-05-12T06:13:52.792Z,5.50
2023-05-12T06:16:20.195Z,6.03
2023-05-12T06:18:47.699Z,5.30
2023-05-12T06:21:15.164Z,5.47
2023-05-12T06:23:42.800Z,5.28
2023-05-12T06:26:10.431Z,5.47
2023-05-12T06:28:37.910Z,5.30
2023-05-12T06:33:36.304Z,5.35
2023-05-12T06:36:03.994Z,5.85
2023-05-12T06:38:34.372Z,5.95
2023-05-12T06:41:01.888Z,6.40
2023-05-12T06:43:29.564Z,7.03
2023-05-12T06:45:57.170Z,6.78
2023-05-12T06:48:24.727Z,6.10
2023-05-12T06:50:56.115Z,6.60
2023-05-12T06:53:28.788Z,6.18
2023-05-12T06:55:56.476Z,6.00
2023-05-12T06:58:24.581Z,7.13
2023-05-12T07:00:52.081Z,5.95
2023-05-12T07:03:19.727Z,7.10
2023-05-12T07:05:47.597Z,6.47
2023-05-12T07:08:15.579Z,7.43
2023-05-12T07:10:43.524Z,7.10
2023-05-12T07:13:10.904Z,6.78
2023-05-12T07:15:38.549Z,6.65
2023-05-12T07:18:06.543Z,6.55
2023-05-12T07:20:34.092Z,7.10
2023-05-12T07:23:01.515Z,7.03
2023-05-12T07:25:29.110Z,7.00
2023-05-12T07:27:56.698Z,7.32
2023-05-12T07:30:24.204Z,7.50
2023-05-12T07:32:55.502Z,7.93
2023-05-12T07:35:28.101Z,7.25
2023-05-12T07:37:55.608Z,7.57
2023-05-12T07:40:23.087Z,7.90
2023-05-12T07:42:51.068Z,7.40
2023-05-12T07:45:23.243Z,7.72
2023-05-12T07:47:51.777Z,6.63
2023-05-12T07:50:19.328Z,6.47
2023-05-12T07:52:51.245Z,7.18
2023-05-12T07:55:21.497Z,7.57
2023-05-12T07:57:52.753Z,6.53
2023-05-12T08:00:20.515Z,7.20
2023-05-12T08:02:48.107Z,6.60
2023-05-12T08:05:15.988Z,6.90
2023-05-12T08:07:43.986Z,7.35
2023-05-12T08:10:13.242Z,6.47
2023-05-12T08:12:42.147Z,6.50
2023-05-12T08:15:10.104Z,6.65
2023-05-12T08:17:37.538Z,5.38
2023-05-12T08:20:05.446Z,4.95
2023-05-12T08:22:34.037Z,4.88
2023-05-12T08:25:01.587Z,3.83
2023-05-12T08:27:29.732Z,4.68
2023-05-12T08:29:57.355Z,4.68
2023-05-12T08:32:24.999Z,4.30
2023-05-12T08:34:52.764Z,4.57
2023-05-12T08:37:21.016Z,4.07
2023-05-12T08:39:48.502Z,3.70
2023-05-12T08:42:24.989Z,3.80
2023-05-12T08:44:54.338Z,3.55
2023-05-12T08:47:25.488Z,3.20
2023-05-12T08:50:01.388Z,2.58
2023-05-12T08:52:33.953Z,2.47
2023-05-12T08:55:03.540Z,2.60
2023-05-12T08:57:31.772Z,2.60
2023-05-12T09:00:00.277Z,2.20
2023-05-12T09:02:44.772Z,2.50
2023-05-12T09:05:18.968Z,2.03
2023-05-12T09:07:48.956Z,2.05
2023-05-12T09:10:32.834Z,2.00
2023-05-12T09:13:17.730Z,2.27
2023-05-12T09:15:47.576Z,1.77
2023-05-12T09:18:15.060Z,2.00
2023-05-12T09:20:42.943Z,1.85
2023-05-12T09:23:19.285Z,1.75
2023-05-12T09:25:47.323Z,1.88
2023-05-12T09:28:14.894Z,1.73
2023-05-12T09:30:42.642Z,1.83
2023-05-12T09:33:14.259Z,2.33
2023-05-12T09:35:43.707Z,1.55
2023-05-12T09:38:13.053Z,1.80
2023-05-12T09:40:41.207Z,1.80
2023-05-12T09:43:09.023Z,1.60
2023-05-12T09:45:38.999Z,2.25
2023-05-12T09:48:14.351Z,1.63
2023-05-12T09:50:52.270Z,1.20
2023-05-12T09:53:20.725Z,1.48
2023-05-12T09:55:48.713Z,1.02
2023-05-12T09:58:18.864Z,1.73
2023-05-12T10:03:18.747Z,1.38
2023-05-12T10:05:53.565Z,1.35
2023-05-12T10:08:25.751Z,1.40
2023-05-12T10:10:56.533Z,1.50
2023-05-12T10:13:24.791Z,2.05
2023-05-12T10:15:58.192Z,1.30
2023-05-12T10:18:26.476Z,1.55
2023-05-12T10:20:54.238Z,1.67
2023-05-12T10:23:23.628Z,1.80
2023-05-12T10:25:56.067Z,1.60
2023-05-12T10:28:23.529Z,1.05
2023-05-12T10:30:51.922Z,1.25
2023-05-12T10:33:20.131Z,1.45
2023-05-12T10:35:49.579Z,1.52
2023-05-12T10:38:17.570Z,1.38
2023-05-12T10:41:01.680Z,1.00
2023-05-12T10:43:45.260Z,1.13
2023-05-12T10:46:12.853Z,1.33
2023-05-12T10:49:07.936Z,1.13
2023-05-12T10:51:50.183Z,1.30
2023-05-12T10:54:24.276Z,1.25
2023-05-12T10:56:52.881Z,1.10
2023-05-12T10:59:23.161Z,1.30
2023-05-12T11:02:13.512Z,1.23
2023-05-12T11:04:50.713Z,0.60
2023-05-12T11:07:27.146Z,0.75
2023-05-12T11:09:59.222Z,0.75
2023-05-12T11:12:32.878Z,1.38
2023-05-12T11:15:02.231Z,1.05
2023-05-12T11:17:30.093Z,1.20
2023-05-12T11:19:58.247Z,0.82
2023-05-12T11:22:26.044Z,0.90
2023-05-12T11:24:53.931Z,1.13
2023-05-12T11:27:23.366Z,1.27
2023-05-12T11:30:01.996Z,1.40
2023-05-12T11:32:30.112Z,1.40
2023-05-12T11:35:18.093Z,1.58
2023-05-12T11:37:46.612Z,1.25
2023-05-12T11:40:19.389Z,1.08
2023-05-12T11:42:49.176Z,1.00
2023-05-12T11:45:45.344Z,1.52
2023-05-12T11:48:14.865Z,1.65
2023-05-12T11:50:49.401Z,1.63
2023-05-12T11:53:19.003Z,1.20
2023-05-12T11:55:54.564Z,1.48
2023-05-12T11:58:27.525Z,1.40
2023-05-12T12:00:55.515Z,1.42
2023-05-12T12:03:25.039Z,1.40
2023-05-12T12:06:03.161Z,1.17
2023-05-12T12:08:31.281Z,0.90
2023-05-12T12:10:59.601Z,1.30
2023-05-12T12:13:27.974Z,1.17
2023-05-12T12:15:56.178Z,1.02
2023-05-12T12:18:23.830Z,1.10
2023-05-12T12:20:51.946Z,1.27
2023-05-12T12:23:19.437Z,1.13
2023-05-12T12:25:46.852Z,0.93
2023-05-12T12:28:14.896Z,1.10
2023-05-12T12:30:42.555Z,1.13
2023-05-12T12:33:10.265Z,1.38
2023-05-12T12:35:37.889Z,1.20
2023-05-12T12:38:05.375Z,1.20
2023-05-12T12:40:32.779Z,1.13
2023-05-12T12:43:00.197Z,1.02
2023-05-12T12:45:27.798Z,1.55
2023-05-12T12:47:55.509Z,1.50
2023-05-12T12:50:24.990Z,1.75
2023-05-12T12:52:53.516Z,1.33
2023-05-12T12:55:21.092Z,1.40
2023-05-12T12:57:48.778Z,1.35
2023-05-12T13:00:17.410Z,0.93
2023-05-12T13:02:45.222Z,1.15
2023-05-12T13:05:12.864Z,1.60
2023-05-12T13:07:40.610Z,1.27
2023-05-12T13:10:09.395Z,1.10
2023-05-12T13:12:37.076Z,1.35
2023-05-12T13:15:05.079Z,1.60
2023-05-12T13:17:32.689Z,2.25
2023-05-12T13:20:00.226Z,1.80
2023-05-12T13:22:29.117Z,1.75
2023-05-12T13:24:56.541Z,1.55
2023-05-12T13:27:24.138Z,1.40
2023-05-12T13:29:52.000Z,1.23
2023-05-12T13:32:20.934Z,1.60
2023-05-12T13:34:48.296Z,1.67
2023-05-12T13:37:16.049Z,2.13
2023-05-12T13:39:43.411Z,1.65
2023-05-12T13:42:11.026Z,1.35
2023-05-12T13:44:38.516Z,2.08
2023-05-12T13:47:08.870Z,1.70
2023-05-12T13:49:36.894Z,1.95
2023-05-12T13:52:04.837Z,1.30
2023-05-12T13:54:32.515Z,1.95
2023-05-12T13:57:00.083Z,1.80
2023-05-12T13:59:27.813Z,1.90
2023-05-12T14:01:55.511Z,1.60
2023-05-12T14:04:23.072Z,1.70
2023-05-12T14:06:50.626Z,1.50
2023-05-12T14:09:18.502Z,1.52
2023-05-12T14:11:46.159Z,1.30
2023-05-12T14:14:13.650Z,1.27
2023-05-12T14:16:41.209Z,1.80
2023-05-12T14:19:08.763Z,1.42
2023-05-12T14:21:36.463Z,1.60
2023-05-12T14:24:05.301Z,2.45
2023-05-12T14:26:32.981Z,2.28
2023-05-12T14:29:00.767Z,2.60
2023-05-12T14:31:28.444Z,2.65
2023-05-12T14:33:56.025Z,2.45
2023-05-12T14:36:23.525Z,2.60
2023-05-12T14:38:50.972Z,2.40
2023-05-12T14:41:18.584Z,3.85
2023-05-12T14:43:46.142Z,3.88
2023-05-12T14:46:13.917Z,4.10
2023-05-12T14:48:41.522Z,4.18
2023-05-12T14:51:09.214Z,4.38
2023-05-12T14:53:36.953Z,4.07
2023-05-12T14:56:04.599Z,4.22
2023-05-12T14:58:32.230Z,4.40
2023-05-12T15:01:02.084Z,5.35
2023-05-12T15:03:29.966Z,5.32
2023-05-12T15:06:06.477Z,4.57
2023-05-12T15:08:35.036Z,4.70
2023-05-12T15:11:02.596Z,5.07
2023-05-12T15:13:30.762Z,5.25
2023-05-12T15:15:58.253Z,5.43
2023-05-12T15:18:25.926Z,5.70
2023-05-12T15:20:53.383Z,6.20
2023-05-12T15:23:21.496Z,6.22
2023-05-12T15:25:49.156Z,5.80
2023-05-12T15:28:17.363Z,5.85
2023-05-12T15:30:45.554Z,6.38
2023-05-12T15:33:13.097Z,5.63
2023-05-12T15:35:40.798Z,5.53
2023-05-12T15:38:08.449Z,6.25
2023-05-12T15:40:35.911Z,6.30
2023-05-12T15:43:05.093Z,6.80
2023-05-12T15:45:32.567Z,6.85
2023-05-12T15:48:00.188Z,6.60
2023-05-12T15:50:27.805Z,5.78
2023-05-12T15:52:55.401Z,6.15
2023-05-12T15:55:23.122Z,5.78
2023-05-12T15:57:51.076Z,5.20
2023-05-12T16:00:19.633Z,4.47
2023-05-12T16:02:47.198Z,4.32
2023-05-12T16:05:14.678Z,4.45
2023-05-12T16:07:42.642Z,4.22
2023-05-12T16:10:10.575Z,4.38
2023-05-12T16:12:38.178Z,4.45
2023-05-12T16:15:06.004Z,4.38
2023-05-12T16:17:33.732Z,3.90
2023-05-12T16:20:01.975Z,3.83
2023-05-12T16:22:29.503Z,3.60
2023-05-12T16:24:57.728Z,4.20
2023-05-12T16:27:25.560Z,3.90
2023-05-12T16:29:53.738Z,3.60
2023-05-12T16:32:21.352Z,3.20
2023-05-12T16:34:48.799Z,3.45
2023-05-12T16:37:16.414Z,3.58
2023-05-12T16:39:44.340Z,3.90
2023-05-12T16:42:11.874Z,3.75
2023-05-12T16:44:39.419Z,3.83
2023-05-12T16:47:07.173Z,4.43
2023-05-12T16:49:34.658Z,3.80
2023-05-12T16:52:02.310Z,3.70
2023-05-12T16:54:32.679Z,3.22
2023-05-12T16:57:02.220Z,3.95
2023-05-12T16:59:32.613Z,3.97
2023-05-12T17:02:00.536Z,3.50
2023-05-12T17:04:28.111Z,4.10
2023-05-12T17:06:55.709Z,3.80
2023-05-12T17:09:23.292Z,4.03
2023-05-12T17:11:50.761Z,3.80
2023-05-12T17:14:19.430Z,3.60
2023-05-12T17:16:47.135Z,3.40
2023-05-12T17:19:15.093Z,2.97
2023-05-12T17:21:42.757Z,2.50
2023-05-12T17:24:10.349Z,3.20
2023-05-12T17:26:38.016Z,2.95
2023-05-12T17:29:05.474Z,2.70
2023-05-12T17:31:33.407Z,2.38
2023-05-12T17:34:00.849Z,3.08
2023-05-12T17:36:28.404Z,2.70
2023-05-12T17:38:55.920Z,1.98
2023-05-12T17:41:23.438Z,2.22
2023-05-12T17:43:50.871Z,2.38
2023-05-12T17:46:18.288Z,1.80
2023-05-12T17:48:45.888Z,1.85
2023-05-12T17:51:13.631Z,1.98
2023-05-12T17:53:41.051Z,2.25
2023-05-12T17:56:08.807Z,2.15
2023-05-12T17:58:36.258Z,2.20
2023-05-12T18:01:03.810Z,2.28
2023-05-12T18:03:31.475Z,2.03
2023-05-12T18:05:59.540Z,2.33
2023-05-12T18:08:27.311Z,2.55
2023-05-12T18:10:54.856Z,2.38
2023-05-12T18:13:22.360Z,2.20
2023-05-12T18:15:50.226Z,2.60
2023-05-12T18:18:17.932Z,2.53
2023-05-12T18:20:45.536Z,2.72
2023-05-12T18:23:12.942Z,2.88
2023-05-12T18:25:40.555Z,2.78
2023-05-12T18:28:08.004Z,2.92
2023-05-12T18:30:35.822Z,2.58
2023-05-12T18:33:03.601Z,2.70
2023-05-12T18:35:31.421Z,3.22
2023-05-12T18:37:58.865Z,3.63
2023-05-12T18:40:26.413Z,3.30
2023-05-12T18:42:53.858Z,3.22
2023-05-12T18:45:21.739Z,4.25
2023-05-12T18:47:49.419Z,4.68
2023-05-12T18:50:17.080Z,6.43
2023-05-12T18:52:44.612Z,7.20
2023-05-12T18:55:12.383Z,4.32
2023-05-12T18:57:39.776Z,4.05
2023-05-12T19:00:09.762Z,4.65
2023-05-12T19:02:37.618Z,4.13
2023-05-12T19:05:05.697Z,4.68
2023-05-12T19:07:33.250Z,4.10
2023-05-12T19:10:00.821Z,4.32
2023-05-12T19:12:28.309Z,5.00
2023-05-12T19:14:56.456Z,4.95
2023-05-12T19:17:23.898Z,5.03
2023-05-12T19:19:51.414Z,5.97
2023-05-12T19:22:18.877Z,5.25
2023-05-12T19:24:46.579Z,4.93
2023-05-12T19:27:14.129Z,4.70
2023-05-12T19:29:41.775Z,5.05
2023-05-12T19:32:09.992Z,5.15
2023-05-12T19:34:37.754Z,5.10
2023-05-12T19:37:06.151Z,4.63
2023-05-12T19:39:33.679Z,5.40
2023-05-12T19:42:01.076Z,5.10
2023-05-12T19:44:30.011Z,4.63
2023-05-12T19:47:04.530Z,4.68
2023-05-12T19:49:36.044Z,5.38
2023-05-12T19:52:04.627Z,4.82
2023-05-12T19:54:32.393Z,3.97
2023-05-12T19:56:59.906Z,4.72
2023-05-12T19:59:27.384Z,4.70
2023-05-12T20:01:55.055Z,4.63
2023-05-12T20:04:24.021Z,4.25
2023-05-12T20:06:51.704Z,5.15
2023-05-12T20:09:20.652Z,4.85
2023-05-12T20:11:48.756Z,5.10
2023-05-12T20:14:16.290Z,5.13
2023-05-12T20:16:43.994Z,4.75
2023-05-12T20:19:11.694Z,4.75
2023-05-12T20:21:41.724Z,4.40
2023-05-12T20:24:09.562Z,4.63
2023-05-12T20:26:37.754Z,4.90
2023-05-12T20:29:05.436Z,4.43
2023-05-12T20:31:33.039Z,4.30
2023-05-12T20:34:00.531Z,4.38
2023-05-12T20:36:28.032Z,4.50
2023-05-12T20:38:55.409Z,4.72
2023-05-12T20:41:22.868Z,5.70
2023-05-12T20:46:17.572Z,4.45
2023-05-12T20:48:45.150Z,4.45
2023-05-12T20:51:13.686Z,4.68
2023-05-12T20:53:41.144Z,5.22
2023-05-12T20:56:08.878Z,4.32
2023-05-12T20:58:36.593Z,3.95
2023-05-12T21:01:04.439Z,3.83
2023-05-12T21:03:35.194Z,3.70
2023-05-12T21:06:05.506Z,3.72
2023-05-12T21:08:32.900Z,3.40
2023-05-12T21:11:00.467Z,3.60
2023-05-12T21:13:27.933Z,3.22
2023-05-12T21:15:55.701Z,3.40
2023-05-12T21:18:23.324Z,3.25
2023-05-12T21:20:51.033Z,3.58
2023-05-12T21:23:18.445Z,3.30
2023-05-12T21:25:45.985Z,3.15
2023-05-12T21:28:13.515Z,3.72
2023-05-12T21:30:41.088Z,3.20
2023-05-12T21:33:08.596Z,3.15
2023-05-12T21:35:36.304Z,3.88
2023-05-12T21:38:03.997Z,3.88
2023-05-12T21:40:31.554Z,3.90
2023-05-12T21:42:59.380Z,4.10
2023-05-12T21:45:26.830Z,3.67
2023-05-12T21:47:54.229Z,3.42
2023-05-12T21:50:21.988Z,4.05
2023-05-12T21:52:50.407Z,3.90
2023-05-12T21:55:18.131Z,3.90
2023-05-12T21:57:45.582Z,3.40
2023-05-12T22:00:14.797Z,4.45
2023-05-12T22:02:43.127Z,3.30
2023-05-12T22:05:10.797Z,3.63
2023-05-12T22:07:38.261Z,3.88
2023-05-12T22:10:06.776Z,4.30
2023-05-12T22:12:34.550Z,4.05
2023-05-12T22:15:02.115Z,4.32
2023-05-12T22:17:29.627Z,3.67
2023-05-12T22:19:57.144Z,4.47
2023-05-12T22:22:24.601Z,4.20
2023-05-12T22:24:52.237Z,4.45
2023-05-12T22:27:22.350Z,4.50
2023-05-12T22:29:49.995Z,4.32
2023-05-12T22:32:17.779Z,4.30
2023-05-12T22:34:45.376Z,4.63
2023-05-12T22:37:12.975Z,4.47
2023-05-12T22:39:40.534Z,4.40
2023-05-12T22:42:08.036Z,4.65
2023-05-12T22:44:35.549Z,4.70
2023-05-12T22:47:03.019Z,4.65
2023-05-12T22:49:30.532Z,4.50
2023-05-12T22:51:58.257Z,4.57
2023-05-12T22:54:26.093Z,4.82
2023-05-12T22:56:53.482Z,5.07
2023-05-12T22:59:21.017Z,4.65
2023-05-12T23:01:48.454Z,4.53
2023-05-12T23:04:16.054Z,4.35
2023-05-12T23:06:43.729Z,4.55
2023-05-12T23:09:11.205Z,4.68
2023-05-12T23:11:38.647Z,4.47
2023-05-12T23:14:06.278Z,5.03
2023-05-12T23:16:33.695Z,4.50
2023-05-12T23:19:02.651Z,4.80
2023-05-12T23:21:30.271Z,4.90
2023-05-12T23:23:57.747Z,4.38
2023-05-12T23:26:25.617Z,4.90
2023-05-12T23:28:53.184Z,4.70
2023-05-12T23:31:20.604Z,4.65
2023-05-12T23:33:48.423Z,4.38
2023-05-12T23:36:15.966Z,4.00
2023-05-12T23:38:43.811Z,4.57
2023-05-12T23:41:11.215Z,4.30
2023-05-12T23:43:39.917Z,3.92
2023-05-12T23:46:07.299Z,4.80
2023-05-12T23:48:34.792Z,4.07
2023-05-12T23:51:02.145Z,4.40
2023-05-12T23:53:29.705Z,4.25
2023-05-12T23:55:57.114Z,4.30
2023-05-12T23:58:24.656Z,4.72
